sensor_id;sensor_type;location;lat;lon;timestamp;P1;durP1;ratioP1;P2;durP2;ratioP2
6143;SDS011;3103;49.492;8.474;2022-10-23T00:01:00;12.17;;;6.03;;
6143;SDS011;3103;49.492;8.474;2022-10-23T00:03:36;8.53;;;5.57;;
6143;SDS011;3103;49.492;8.474;2022-10-23T00:06:03;17.87;;;7.60;;
6143;SDS011;3103;49.492;8.474;2022-10-23T00:08:30;12.73;;;7.53;;
6143;SDS011;3103;49.492;8.474;2022-10-23T00:10:57;13.17;;;7.23;;
6143;SDS011;3103;49.492;8.474;2022-10-23T00:13:23;12.17;;;5.97;;
6143;SDS011;3103;49.492;8.474;2022-10-23T00:15:50;10.13;;;6.03;;
6143;SDS011;3103;49.492;8.474;2022-10-23T00:18:22;13.65;;;6.15;;
6143;SDS011;3103;49.492;8.474;2022-10-23T00:20:48;9.83;;;4.77;;
6143;SDS011;3103;49.492;8.474;2022-10-23T00:23:15;12.27;;;6.23;;
6143;SDS011;3103;49.492;8.474;2022-10-23T00:25:43;12.13;;;6.37;;
6143;SDS011;3103;49.492;8.474;2022-10-23T00:28:09;12.13;;;5.97;;
6143;SDS011;3103;49.492;8.474;2022-10-23T00:30:36;10.17;;;5.93;;
6143;SDS011;3103;49.492;8.474;2022-10-23T00:33:03;12.77;;;5.57;;
6143;SDS011;3103;49.492;8.474;2022-10-23T00:35:30;10.20;;;5.43;;
6143;SDS011;3103;49.492;8.474;2022-10-23T00:37:56;14.10;;;6.03;;
6143;SDS011;3103;49.492;8.474;2022-10-23T00:40:23;12.20;;;5.23;;
6143;SDS011;3103;49.492;8.474;2022-10-23T00:42:49;11.60;;;6.80;;
6143;SDS011;3103;49.492;8.474;2022-10-23T00:45:20;10.53;;;6.20;;
6143;SDS011;3103;49.492;8.474;2022-10-23T00:47:52;11.57;;;6.10;;
6143;SDS011;3103;49.492;8.474;2022-10-23T00:50:21;9.37;;;5.23;;
6143;SDS011;3103;49.492;8.474;2022-10-23T00:52:51;7.60;;;4.97;;
6143;SDS011;3103;49.492;8.474;2022-10-23T00:55:20;14.87;;;5.47;;
6143;SDS011;3103;49.492;8.474;2022-10-23T00:57:49;9.13;;;5.90;;
6143;SDS011;3103;49.492;8.474;2022-10-23T01:00:23;9.50;;;5.27;;
6143;SDS011;3103;49.492;8.474;2022-10-23T01:02:52;7.17;;;4.87;;
6143;SDS011;3103;49.492;8.474;2022-10-23T01:05:21;7.67;;;5.07;;
6143;SDS011;3103;49.492;8.474;2022-10-23T01:08:05;9.47;;;5.00;;
6143;SDS011;3103;49.492;8.474;2022-10-23T01:13:22;11.50;;;5.67;;
6143;SDS011;3103;49.492;8.474;2022-10-23T01:15:56;10.00;;;5.17;;
6143;SDS011;3103;49.492;8.474;2022-10-23T01:18:37;12.47;;;6.03;;
6143;SDS011;3103;49.492;8.474;2022-10-23T01:21:14;6.97;;;5.07;;
6143;SDS011;3103;49.492;8.474;2022-10-23T01:24:05;7.27;;;4.87;;
6143;SDS011;3103;49.492;8.474;2022-10-23T01:26:49;12.10;;;5.57;;
6143;SDS011;3103;49.492;8.474;2022-10-23T01:32:12;8.03;;;5.40;;
6143;SDS011;3103;49.492;8.474;2022-10-23T01:34:47;8.40;;;5.40;;
6143;SDS011;3103;49.492;8.474;2022-10-23T01:37:27;8.83;;;4.80;;
6143;SDS011;3103;49.492;8.474;2022-10-23T01:40:03;10.00;;;5.30;;
6143;SDS011;3103;49.492;8.474;2022-10-23T01:42:38;9.43;;;5.50;;
6143;SDS011;3103;49.492;8.474;2022-10-23T01:45:22;9.63;;;5.90;;
6143;SDS011;3103;49.492;8.474;2022-10-23T01:47:55;13.17;;;6.70;;
6143;SDS011;3103;49.492;8.474;2022-10-23T01:50:22;8.07;;;5.20;;
6143;SDS011;3103;49.492;8.474;2022-10-23T01:52:57;10.00;;;4.93;;
6143;SDS011;3103;49.492;8.474;2022-10-23T01:55:24;9.97;;;5.00;;
6143;SDS011;3103;49.492;8.474;2022-10-23T01:57:53;13.77;;;6.40;;
6143;SDS011;3103;49.492;8.474;2022-10-23T02:00:23;9.33;;;4.77;;
6143;SDS011;3103;49.492;8.474;2022-10-23T02:02:50;10.97;;;5.17;;
6143;SDS011;3103;49.492;8.474;2022-10-23T02:05:23;10.20;;;5.17;;
6143;SDS011;3103;49.492;8.474;2022-10-23T02:07:53;8.00;;;4.37;;
6143;SDS011;3103;49.492;8.474;2022-10-23T02:10:21;8.40;;;5.47;;
6143;SDS011;3103;49.492;8.474;2022-10-23T02:21:26;15.23;;;5.53;;
6143;SDS011;3103;49.492;8.474;2022-10-23T02:24:04;12.43;;;5.70;;
6143;SDS011;3103;49.492;8.474;2022-10-23T02:26:40;11.20;;;5.43;;
6143;SDS011;3103;49.492;8.474;2022-10-23T02:31:48;7.10;;;5.00;;
6143;SDS011;3103;49.492;8.474;2022-10-23T02:34:17;9.30;;;5.20;;
6143;SDS011;3103;49.492;8.474;2022-10-23T02:36:44;12.50;;;6.03;;
6143;SDS011;3103;49.492;8.474;2022-10-23T02:39:11;11.47;;;5.97;;
6143;SDS011;3103;49.492;8.474;2022-10-23T02:41:58;10.87;;;5.60;;
6143;SDS011;3103;49.492;8.474;2022-10-23T02:44:49;8.13;;;5.27;;
6143;SDS011;3103;49.492;8.474;2022-10-23T02:47:32;12.60;;;5.43;;
6143;SDS011;3103;49.492;8.474;2022-10-23T02:53:43;12.90;;;5.17;;
6143;SDS011;3103;49.492;8.474;2022-10-23T02:59:26;7.93;;;5.17;;
6143;SDS011;3103;49.492;8.474;2022-10-23T03:04:47;8.77;;;4.80;;
6143;SDS011;3103;49.492;8.474;2022-10-23T03:07:14;7.30;;;5.23;;
6143;SDS011;3103;49.492;8.474;2022-10-23T03:09:44;8.87;;;5.27;;
6143;SDS011;3103;49.492;8.474;2022-10-23T03:12:12;10.13;;;5.10;;
6143;SDS011;3103;49.492;8.474;2022-10-23T03:14:39;11.07;;;4.93;;
6143;SDS011;3103;49.492;8.474;2022-10-23T03:17:06;14.13;;;5.50;;
6143;SDS011;3103;49.492;8.474;2022-10-23T03:19:33;10.17;;;5.40;;
6143;SDS011;3103;49.492;8.474;2022-10-23T03:22:03;13.23;;;7.23;;
6143;SDS011;3103;49.492;8.474;2022-10-23T03:24:30;11.20;;;6.63;;
6143;SDS011;3103;49.492;8.474;2022-10-23T03:26:56;13.77;;;6.33;;
6143;SDS011;3103;49.492;8.474;2022-10-23T03:29:29;16.17;;;6.17;;
6143;SDS011;3103;49.492;8.474;2022-10-23T03:31:56;14.40;;;7.33;;
6143;SDS011;3103;49.492;8.474;2022-10-23T03:34:22;11.50;;;5.53;;
6143;SDS011;3103;49.492;8.474;2022-10-23T03:36:51;9.40;;;5.27;;
6143;SDS011;3103;49.492;8.474;2022-10-23T03:39:19;8.87;;;6.27;;
6143;SDS011;3103;49.492;8.474;2022-10-23T03:41:46;10.40;;;5.47;;
6143;SDS011;3103;49.492;8.474;2022-10-23T03:44:15;10.20;;;6.00;;
6143;SDS011;3103;49.492;8.474;2022-10-23T03:46:43;8.90;;;5.17;;
6143;SDS011;3103;49.492;8.474;2022-10-23T03:49:10;8.87;;;5.83;;
6143;SDS011;3103;49.492;8.474;2022-10-23T03:51:41;8.70;;;5.80;;
6143;SDS011;3103;49.492;8.474;2022-10-23T03:54:09;12.20;;;6.00;;
6143;SDS011;3103;49.492;8.474;2022-10-23T03:56:36;7.37;;;5.27;;
6143;SDS011;3103;49.492;8.474;2022-10-23T03:59:06;9.53;;;5.53;;
6143;SDS011;3103;49.492;8.474;2022-10-23T04:01:32;14.23;;;5.70;;
6143;SDS011;3103;49.492;8.474;2022-10-23T04:03:59;11.57;;;5.67;;
6143;SDS011;3103;49.492;8.474;2022-10-23T04:06:27;8.90;;;4.47;;
6143;SDS011;3103;49.492;8.474;2022-10-23T04:08:56;6.40;;;4.23;;
6143;SDS011;3103;49.492;8.474;2022-10-23T04:11:23;6.37;;;3.90;;
6143;SDS011;3103;49.492;8.474;2022-10-23T04:13:49;6.13;;;3.57;;
6143;SDS011;3103;49.492;8.474;2022-10-23T04:16:16;10.43;;;4.63;;
6143;SDS011;3103;49.492;8.474;2022-10-23T04:18:43;7.80;;;4.10;;
6143;SDS011;3103;49.492;8.474;2022-10-23T04:21:10;22.57;;;4.40;;
6143;SDS011;3103;49.492;8.474;2022-10-23T04:23:37;6.37;;;3.77;;
6143;SDS011;3103;49.492;8.474;2022-10-23T04:26:10;6.60;;;4.40;;
6143;SDS011;3103;49.492;8.474;2022-10-23T04:28:37;7.10;;;4.17;;
6143;SDS011;3103;49.492;8.474;2022-10-23T04:31:04;6.33;;;4.60;;
6143;SDS011;3103;49.492;8.474;2022-10-23T04:33:32;7.23;;;4.90;;
6143;SDS011;3103;49.492;8.474;2022-10-23T04:35:59;9.63;;;5.00;;
6143;SDS011;3103;49.492;8.474;2022-10-23T04:38:25;8.87;;;4.30;;
6143;SDS011;3103;49.492;8.474;2022-10-23T04:40:52;8.53;;;5.17;;
6143;SDS011;3103;49.492;8.474;2022-10-23T04:43:20;13.10;;;5.03;;
6143;SDS011;3103;49.492;8.474;2022-10-23T04:45:47;7.83;;;4.63;;
6143;SDS011;3103;49.492;8.474;2022-10-23T04:48:14;13.67;;;4.73;;
6143;SDS011;3103;49.492;8.474;2022-10-23T04:51:02;8.40;;;4.27;;
6143;SDS011;3103;49.492;8.474;2022-10-23T04:53:49;9.20;;;4.83;;
6143;SDS011;3103;49.492;8.474;2022-10-23T04:56:34;8.10;;;4.97;;
6143;SDS011;3103;49.492;8.474;2022-10-23T04:59:06;7.90;;;4.80;;
6143;SDS011;3103;49.492;8.474;2022-10-23T05:01:35;9.97;;;4.70;;
6143;SDS011;3103;49.492;8.474;2022-10-23T05:04:04;7.67;;;5.10;;
6143;SDS011;3103;49.492;8.474;2022-10-23T05:06:38;8.50;;;4.90;;
6143;SDS011;3103;49.492;8.474;2022-10-23T05:09:18;7.40;;;4.37;;
6143;SDS011;3103;49.492;8.474;2022-10-23T05:12:04;6.63;;;5.00;;
6143;SDS011;3103;49.492;8.474;2022-10-23T05:14:31;8.50;;;4.40;;
6143;SDS011;3103;49.492;8.474;2022-10-23T05:16:59;11.90;;;4.83;;
6143;SDS011;3103;49.492;8.474;2022-10-23T05:19:32;8.07;;;4.37;;
6143;SDS011;3103;49.492;8.474;2022-10-23T05:22:04;8.77;;;4.67;;
6143;SDS011;3103;49.492;8.474;2022-10-23T05:24:45;7.10;;;4.50;;
6143;SDS011;3103;49.492;8.474;2022-10-23T05:27:19;9.43;;;5.00;;
6143;SDS011;3103;49.492;8.474;2022-10-23T05:29:45;7.23;;;4.73;;
6143;SDS011;3103;49.492;8.474;2022-10-23T05:32:16;11.60;;;5.37;;
6143;SDS011;3103;49.492;8.474;2022-10-23T05:34:43;10.83;;;4.90;;
6143;SDS011;3103;49.492;8.474;2022-10-23T05:37:10;8.60;;;4.67;;
6143;SDS011;3103;49.492;8.474;2022-10-23T05:39:40;10.83;;;5.60;;
6143;SDS011;3103;49.492;8.474;2022-10-23T05:42:11;17.47;;;5.20;;
6143;SDS011;3103;49.492;8.474;2022-10-23T05:44:39;10.53;;;4.80;;
6143;SDS011;3103;49.492;8.474;2022-10-23T05:47:16;15.47;;;5.33;;
6143;SDS011;3103;49.492;8.474;2022-10-23T05:49:42;8.10;;;5.00;;
6143;SDS011;3103;49.492;8.474;2022-10-23T05:52:38;8.50;;;4.80;;
6143;SDS011;3103;49.492;8.474;2022-10-23T05:55:14;10.40;;;4.90;;
6143;SDS011;3103;49.492;8.474;2022-10-23T05:58:11;9.23;;;4.93;;
6143;SDS011;3103;49.492;8.474;2022-10-23T06:00:57;7.20;;;5.40;;
6143;SDS011;3103;49.492;8.474;2022-10-23T06:03:46;7.10;;;4.93;;
6143;SDS011;3103;49.492;8.474;2022-10-23T06:06:13;9.40;;;5.90;;
6143;SDS011;3103;49.492;8.474;2022-10-23T06:08:44;6.70;;;4.97;;
6143;SDS011;3103;49.492;8.474;2022-10-23T06:11:12;8.37;;;5.40;;
6143;SDS011;3103;49.492;8.474;2022-10-23T06:13:47;9.30;;;5.10;;
6143;SDS011;3103;49.492;8.474;2022-10-23T06:16:18;7.67;;;5.17;;
6143;SDS011;3103;49.492;8.474;2022-10-23T06:18:47;9.63;;;4.90;;
6143;SDS011;3103;49.492;8.474;2022-10-23T06:21:16;8.23;;;4.90;;
6143;SDS011;3103;49.492;8.474;2022-10-23T06:23:45;10.20;;;5.60;;
6143;SDS011;3103;49.492;8.474;2022-10-23T06:26:18;8.63;;;5.30;;
6143;SDS011;3103;49.492;8.474;2022-10-23T06:29:04;8.47;;;5.50;;
6143;SDS011;3103;49.492;8.474;2022-10-23T06:31:31;7.43;;;4.43;;
6143;SDS011;3103;49.492;8.474;2022-10-23T06:33:58;8.87;;;5.60;;
6143;SDS011;3103;49.492;8.474;2022-10-23T06:36:27;12.30;;;5.43;;
6143;SDS011;3103;49.492;8.474;2022-10-23T06:39:04;10.67;;;5.57;;
6143;SDS011;3103;49.492;8.474;2022-10-23T06:41:51;9.97;;;5.43;;
6143;SDS011;3103;49.492;8.474;2022-10-23T06:44:38;9.03;;;5.23;;
6143;SDS011;3103;49.492;8.474;2022-10-23T06:47:09;10.07;;;5.00;;
6143;SDS011;3103;49.492;8.474;2022-10-23T06:50:02;10.77;;;5.00;;
6143;SDS011;3103;49.492;8.474;2022-10-23T06:52:30;7.93;;;5.37;;
6143;SDS011;3103;49.492;8.474;2022-10-23T06:55:14;7.30;;;5.13;;
6143;SDS011;3103;49.492;8.474;2022-10-23T06:57:42;13.07;;;6.33;;
6143;SDS011;3103;49.492;8.474;2022-10-23T07:00:10;10.50;;;6.23;;
6143;SDS011;3103;49.492;8.474;2022-10-23T07:02:55;11.00;;;6.20;;
6143;SDS011;3103;49.492;8.474;2022-10-23T07:05:22;11.20;;;5.70;;
6143;SDS011;3103;49.492;8.474;2022-10-23T07:07:49;10.57;;;5.10;;
6143;SDS011;3103;49.492;8.474;2022-10-23T07:10:22;8.33;;;5.07;;
6143;SDS011;3103;49.492;8.474;2022-10-23T07:12:54;8.50;;;5.70;;
6143;SDS011;3103;49.492;8.474;2022-10-23T07:15:38;11.13;;;5.63;;
6143;SDS011;3103;49.492;8.474;2022-10-23T07:18:09;9.03;;;6.03;;
6143;SDS011;3103;49.492;8.474;2022-10-23T07:21:03;8.37;;;6.10;;
6143;SDS011;3103;49.492;8.474;2022-10-23T07:23:31;8.00;;;5.90;;
6143;SDS011;3103;49.492;8.474;2022-10-23T07:26:11;10.53;;;6.60;;
6143;SDS011;3103;49.492;8.474;2022-10-23T07:28:43;12.70;;;6.50;;
6143;SDS011;3103;49.492;8.474;2022-10-23T07:31:14;12.13;;;5.67;;
6143;SDS011;3103;49.492;8.474;2022-10-23T07:34:00;7.30;;;5.73;;
6143;SDS011;3103;49.492;8.474;2022-10-23T07:36:29;9.13;;;6.33;;
6143;SDS011;3103;49.492;8.474;2022-10-23T07:38:56;11.13;;;6.80;;
6143;SDS011;3103;49.492;8.474;2022-10-23T07:41:23;11.07;;;7.17;;
6143;SDS011;3103;49.492;8.474;2022-10-23T07:43:50;13.67;;;7.20;;
6143;SDS011;3103;49.492;8.474;2022-10-23T07:46:17;13.30;;;7.13;;
6143;SDS011;3103;49.492;8.474;2022-10-23T07:48:44;9.60;;;7.33;;
6143;SDS011;3103;49.492;8.474;2022-10-23T07:51:13;11.63;;;7.50;;
6143;SDS011;3103;49.492;8.474;2022-10-23T07:53:44;12.27;;;7.40;;
6143;SDS011;3103;49.492;8.474;2022-10-23T07:56:22;16.20;;;8.50;;
6143;SDS011;3103;49.492;8.474;2022-10-23T07:59:13;14.93;;;8.37;;
6143;SDS011;3103;49.492;8.474;2022-10-23T08:01:46;13.87;;;8.53;;
6143;SDS011;3103;49.492;8.474;2022-10-23T08:04:18;13.90;;;8.50;;
6143;SDS011;3103;49.492;8.474;2022-10-23T08:06:54;14.63;;;8.20;;
6143;SDS011;3103;49.492;8.474;2022-10-23T08:09:23;15.23;;;8.67;;
6143;SDS011;3103;49.492;8.474;2022-10-23T08:11:50;13.47;;;8.93;;
6143;SDS011;3103;49.492;8.474;2022-10-23T08:14:18;15.73;;;9.07;;
6143;SDS011;3103;49.492;8.474;2022-10-23T08:16:46;26.67;;;16.43;;
6143;SDS011;3103;49.492;8.474;2022-10-23T08:19:35;33.20;;;21.53;;
6143;SDS011;3103;49.492;8.474;2022-10-23T08:22:02;46.30;;;29.53;;
6143;SDS011;3103;49.492;8.474;2022-10-23T08:24:29;56.73;;;33.33;;
6143;SDS011;3103;49.492;8.474;2022-10-23T08:26:56;53.73;;;33.00;;
6143;SDS011;3103;49.492;8.474;2022-10-23T08:29:24;33.43;;;21.50;;
6143;SDS011;3103;49.492;8.474;2022-10-23T08:31:52;32.37;;;20.80;;
6143;SDS011;3103;49.492;8.474;2022-10-23T08:34:50;23.83;;;14.27;;
6143;SDS011;3103;49.492;8.474;2022-10-23T08:37:20;19.23;;;12.53;;
6143;SDS011;3103;49.492;8.474;2022-10-23T08:39:46;22.20;;;14.07;;
6143;SDS011;3103;49.492;8.474;2022-10-23T08:42:25;26.87;;;16.57;;
6143;SDS011;3103;49.492;8.474;2022-10-23T08:45:00;23.27;;;15.70;;
6143;SDS011;3103;49.492;8.474;2022-10-23T08:47:38;24.73;;;17.47;;
6143;SDS011;3103;49.492;8.474;2022-10-23T08:50:29;25.63;;;13.30;;
6143;SDS011;3103;49.492;8.474;2022-10-23T08:53:21;25.73;;;15.30;;
6143;SDS011;3103;49.492;8.474;2022-10-23T08:56:02;8.20;;;5.80;;
6143;SDS011;3103;49.492;8.474;2022-10-23T08:58:39;7.77;;;4.43;;
6143;SDS011;3103;49.492;8.474;2022-10-23T09:01:21;10.17;;;5.33;;
6143;SDS011;3103;49.492;8.474;2022-10-23T09:03:53;11.67;;;6.27;;
6143;SDS011;3103;49.492;8.474;2022-10-23T09:06:32;15.63;;;10.20;;
6143;SDS011;3103;49.492;8.474;2022-10-23T09:12:08;9.77;;;5.53;;
6143;SDS011;3103;49.492;8.474;2022-10-23T09:14:51;8.57;;;5.10;;
6143;SDS011;3103;49.492;8.474;2022-10-23T09:17:41;9.87;;;4.17;;
6143;SDS011;3103;49.492;8.474;2022-10-23T09:20:23;7.83;;;4.17;;
6143;SDS011;3103;49.492;8.474;2022-10-23T09:22:58;9.07;;;4.17;;
6143;SDS011;3103;49.492;8.474;2022-10-23T09:25:32;11.70;;;5.37;;
6143;SDS011;3103;49.492;8.474;2022-10-23T09:28:02;7.07;;;5.17;;
6143;SDS011;3103;49.492;8.474;2022-10-23T09:30:32;13.03;;;8.00;;
6143;SDS011;3103;49.492;8.474;2022-10-23T09:33:23;12.57;;;7.70;;
6143;SDS011;3103;49.492;8.474;2022-10-23T09:35:53;14.47;;;7.23;;
6143;SDS011;3103;49.492;8.474;2022-10-23T09:38:32;16.70;;;9.77;;
6143;SDS011;3103;49.492;8.474;2022-10-23T09:41:05;37.70;;;22.67;;
6143;SDS011;3103;49.492;8.474;2022-10-23T09:43:38;37.70;;;22.27;;
6143;SDS011;3103;49.492;8.474;2022-10-23T09:46:06;7.37;;;4.17;;
6143;SDS011;3103;49.492;8.474;2022-10-23T09:48:34;12.80;;;7.27;;
6143;SDS011;3103;49.492;8.474;2022-10-23T09:51:03;11.30;;;5.00;;
6143;SDS011;3103;49.492;8.474;2022-10-23T09:56:24;14.17;;;7.50;;
6143;SDS011;3103;49.492;8.474;2022-10-23T09:58:54;8.33;;;4.70;;
6143;SDS011;3103;49.492;8.474;2022-10-23T10:01:29;6.83;;;5.30;;
6143;SDS011;3103;49.492;8.474;2022-10-23T10:04:18;6.20;;;3.57;;
6143;SDS011;3103;49.492;8.474;2022-10-23T10:06:45;10.30;;;5.77;;
6143;SDS011;3103;49.492;8.474;2022-10-23T10:09:15;26.07;;;14.30;;
6143;SDS011;3103;49.492;8.474;2022-10-23T10:11:49;8.17;;;5.10;;
6143;SDS011;3103;49.492;8.474;2022-10-23T10:17:32;19.37;;;10.97;;
6143;SDS011;3103;49.492;8.474;2022-10-23T10:23:05;7.30;;;4.40;;
6143;SDS011;3103;49.492;8.474;2022-10-23T10:25:50;4.53;;;2.70;;
6143;SDS011;3103;49.492;8.474;2022-10-23T10:28:25;3.20;;;2.37;;
6143;SDS011;3103;49.492;8.474;2022-10-23T10:34:09;4.60;;;3.03;;
6143;SDS011;3103;49.492;8.474;2022-10-23T10:48:02;3.13;;;2.10;;
6143;SDS011;3103;49.492;8.474;2022-10-23T10:51:11;7.30;;;2.50;;
6143;SDS011;3103;49.492;8.474;2022-10-23T10:56:24;5.50;;;2.60;;
6143;SDS011;3103;49.492;8.474;2022-10-23T10:58:56;4.70;;;2.17;;
6143;SDS011;3103;49.492;8.474;2022-10-23T11:04:02;11.83;;;8.47;;
6143;SDS011;3103;49.492;8.474;2022-10-23T11:06:37;9.37;;;3.63;;
6143;SDS011;3103;49.492;8.474;2022-10-23T11:09:13;12.67;;;7.33;;
6143;SDS011;3103;49.492;8.474;2022-10-23T11:11:46;10.27;;;6.47;;
6143;SDS011;3103;49.492;8.474;2022-10-23T11:14:15;13.23;;;9.33;;
6143;SDS011;3103;49.492;8.474;2022-10-23T11:16:48;12.37;;;7.77;;
6143;SDS011;3103;49.492;8.474;2022-10-23T11:22:00;18.13;;;11.80;;
6143;SDS011;3103;49.492;8.474;2022-10-23T11:29:56;2.17;;;1.73;;
6143;SDS011;3103;49.492;8.474;2022-10-23T11:32:49;7.30;;;3.67;;
6143;SDS011;3103;49.492;8.474;2022-10-23T11:38:26;2.23;;;1.60;;
6143;SDS011;3103;49.492;8.474;2022-10-23T11:40:56;2.50;;;1.90;;
6143;SDS011;3103;49.492;8.474;2022-10-23T11:45:52;3.97;;;1.53;;
6143;SDS011;3103;49.492;8.474;2022-10-23T11:48:21;2.53;;;1.90;;
6143;SDS011;3103;49.492;8.474;2022-10-23T11:51:03;2.50;;;1.77;;
6143;SDS011;3103;49.492;8.474;2022-10-23T11:53:37;4.60;;;2.13;;
6143;SDS011;3103;49.492;8.474;2022-10-23T11:58:42;14.27;;;8.20;;
6143;SDS011;3103;49.492;8.474;2022-10-23T12:06:41;3.43;;;2.50;;
6143;SDS011;3103;49.492;8.474;2022-10-23T12:09:45;3.30;;;2.80;;
6143;SDS011;3103;49.492;8.474;2022-10-23T12:12:29;4.07;;;2.80;;
6143;SDS011;3103;49.492;8.474;2022-10-23T12:17:47;3.57;;;1.93;;
6143;SDS011;3103;49.492;8.474;2022-10-23T12:20:28;2.87;;;2.10;;
6143;SDS011;3103;49.492;8.474;2022-10-23T12:26:22;4.57;;;2.10;;
6143;SDS011;3103;49.492;8.474;2022-10-23T12:37:23;26.53;;;15.53;;
6143;SDS011;3103;49.492;8.474;2022-10-23T12:39:54;52.20;;;30.67;;
6143;SDS011;3103;49.492;8.474;2022-10-23T12:42:28;8.90;;;5.63;;
6143;SDS011;3103;49.492;8.474;2022-10-23T12:45:02;6.87;;;4.37;;
6143;SDS011;3103;49.492;8.474;2022-10-23T12:47:41;9.57;;;4.83;;
6143;SDS011;3103;49.492;8.474;2022-10-23T12:50:17;9.10;;;5.20;;
6143;SDS011;3103;49.492;8.474;2022-10-23T12:52:55;14.67;;;7.27;;
6143;SDS011;3103;49.492;8.474;2022-10-23T12:55:24;7.43;;;4.50;;
6143;SDS011;3103;49.492;8.474;2022-10-23T12:58:01;5.63;;;2.80;;
6143;SDS011;3103;49.492;8.474;2022-10-23T13:00:27;14.67;;;6.70;;
6143;SDS011;3103;49.492;8.474;2022-10-23T13:03:01;9.10;;;4.67;;
6143;SDS011;3103;49.492;8.474;2022-10-23T13:05:29;6.87;;;2.70;;
6143;SDS011;3103;49.492;8.474;2022-10-23T13:07:58;3.47;;;1.80;;
6143;SDS011;3103;49.492;8.474;2022-10-23T13:10:40;5.27;;;1.80;;
6143;SDS011;3103;49.492;8.474;2022-10-23T13:13:09;4.17;;;1.60;;
6143;SDS011;3103;49.492;8.474;2022-10-23T13:15:41;3.03;;;2.00;;
6143;SDS011;3103;49.492;8.474;2022-10-23T13:18:10;2.33;;;1.70;;
6143;SDS011;3103;49.492;8.474;2022-10-23T13:23:28;5.70;;;1.80;;
6143;SDS011;3103;49.492;8.474;2022-10-23T13:26:01;3.80;;;1.33;;
6143;SDS011;3103;49.492;8.474;2022-10-23T13:28:51;2.60;;;1.57;;
6143;SDS011;3103;49.492;8.474;2022-10-23T13:31:23;4.50;;;1.70;;
6143;SDS011;3103;49.492;8.474;2022-10-23T13:36:29;1.63;;;1.40;;
6143;SDS011;3103;49.492;8.474;2022-10-23T13:41:39;4.70;;;3.50;;
6143;SDS011;3103;49.492;8.474;2022-10-23T13:44:11;3.20;;;2.53;;
6143;SDS011;3103;49.492;8.474;2022-10-23T13:46:39;5.43;;;3.20;;
6143;SDS011;3103;49.492;8.474;2022-10-23T13:49:07;3.40;;;1.80;;
6143;SDS011;3103;49.492;8.474;2022-10-23T13:51:50;3.90;;;2.07;;
6143;SDS011;3103;49.492;8.474;2022-10-23T13:54:19;7.93;;;1.93;;
6143;SDS011;3103;49.492;8.474;2022-10-23T13:56:48;2.43;;;1.70;;
6143;SDS011;3103;49.492;8.474;2022-10-23T13:59:16;1.70;;;1.60;;
6143;SDS011;3103;49.492;8.474;2022-10-23T14:01:43;2.37;;;1.67;;
6143;SDS011;3103;49.492;8.474;2022-10-23T14:04:11;1.50;;;1.37;;
6143;SDS011;3103;49.492;8.474;2022-10-23T14:06:39;1.97;;;1.77;;
6143;SDS011;3103;49.492;8.474;2022-10-23T14:09:09;1.77;;;1.57;;
6143;SDS011;3103;49.492;8.474;2022-10-23T14:11:38;1.63;;;1.40;;
6143;SDS011;3103;49.492;8.474;2022-10-23T14:14:05;1.37;;;1.17;;
6143;SDS011;3103;49.492;8.474;2022-10-23T14:16:32;2.47;;;1.80;;
6143;SDS011;3103;49.492;8.474;2022-10-23T14:18:59;2.57;;;1.57;;
6143;SDS011;3103;49.492;8.474;2022-10-23T14:21:25;2.33;;;1.60;;
6143;SDS011;3103;49.492;8.474;2022-10-23T14:23:52;1.97;;;1.77;;
6143;SDS011;3103;49.492;8.474;2022-10-23T14:26:21;1.80;;;1.43;;
6143;SDS011;3103;49.492;8.474;2022-10-23T14:28:53;1.83;;;1.73;;
6143;SDS011;3103;49.492;8.474;2022-10-23T14:31:24;5.00;;;2.00;;
6143;SDS011;3103;49.492;8.474;2022-10-23T14:33:52;2.60;;;1.40;;
6143;SDS011;3103;49.492;8.474;2022-10-23T14:36:21;2.53;;;2.17;;
6143;SDS011;3103;49.492;8.474;2022-10-23T14:38:49;2.90;;;2.37;;
6143;SDS011;3103;49.492;8.474;2022-10-23T14:41:21;3.13;;;2.00;;
6143;SDS011;3103;49.492;8.474;2022-10-23T14:43:48;3.53;;;1.90;;
6143;SDS011;3103;49.492;8.474;2022-10-23T14:46:16;5.83;;;2.13;;
6143;SDS011;3103;49.492;8.474;2022-10-23T14:48:44;1.90;;;1.70;;
6143;SDS011;3103;49.492;8.474;2022-10-23T14:51:20;4.80;;;2.47;;
6143;SDS011;3103;49.492;8.474;2022-10-23T14:53:48;1.93;;;1.63;;
6143;SDS011;3103;49.492;8.474;2022-10-23T14:56:24;4.27;;;2.60;;
6143;SDS011;3103;49.492;8.474;2022-10-23T14:58:51;3.30;;;2.93;;
6143;SDS011;3103;49.492;8.474;2022-10-23T15:01:18;7.00;;;3.40;;
6143;SDS011;3103;49.492;8.474;2022-10-23T15:03:45;9.87;;;3.40;;
6143;SDS011;3103;49.492;8.474;2022-10-23T15:06:11;4.40;;;2.80;;
6143;SDS011;3103;49.492;8.474;2022-10-23T15:08:43;4.67;;;2.60;;
6143;SDS011;3103;49.492;8.474;2022-10-23T15:11:10;5.93;;;3.40;;
6143;SDS011;3103;49.492;8.474;2022-10-23T15:13:38;9.50;;;2.70;;
6143;SDS011;3103;49.492;8.474;2022-10-23T15:16:06;8.47;;;2.80;;
6143;SDS011;3103;49.492;8.474;2022-10-23T15:18:34;2.90;;;2.27;;
6143;SDS011;3103;49.492;8.474;2022-10-23T15:21:08;4.63;;;2.53;;
6143;SDS011;3103;49.492;8.474;2022-10-23T15:23:37;16.70;;;9.97;;
6143;SDS011;3103;49.492;8.474;2022-10-23T15:26:06;25.23;;;15.20;;
6143;SDS011;3103;49.492;8.474;2022-10-23T15:28:34;38.17;;;20.43;;
6143;SDS011;3103;49.492;8.474;2022-10-23T15:31:01;29.97;;;15.77;;
6143;SDS011;3103;49.492;8.474;2022-10-23T15:33:29;33.33;;;19.47;;
6143;SDS011;3103;49.492;8.474;2022-10-23T15:35:55;20.57;;;12.60;;
6143;SDS011;3103;49.492;8.474;2022-10-23T15:38:22;30.43;;;17.07;;
6143;SDS011;3103;49.492;8.474;2022-10-23T15:40:49;16.83;;;11.70;;
6143;SDS011;3103;49.492;8.474;2022-10-23T15:43:23;21.83;;;15.23;;
6143;SDS011;3103;49.492;8.474;2022-10-23T15:45:50;8.73;;;5.37;;
6143;SDS011;3103;49.492;8.474;2022-10-23T15:48:16;9.23;;;6.33;;
6143;SDS011;3103;49.492;8.474;2022-10-23T15:50:43;5.80;;;3.77;;
6143;SDS011;3103;49.492;8.474;2022-10-23T15:53:10;4.47;;;2.57;;
6143;SDS011;3103;49.492;8.474;2022-10-23T15:55:37;6.70;;;3.27;;
6143;SDS011;3103;49.492;8.474;2022-10-23T15:58:03;5.50;;;2.63;;
6143;SDS011;3103;49.492;8.474;2022-10-23T16:00:31;4.73;;;2.23;;
6143;SDS011;3103;49.492;8.474;2022-10-23T16:03:01;5.17;;;2.43;;
6143;SDS011;3103;49.492;8.474;2022-10-23T16:05:28;3.23;;;2.10;;
6143;SDS011;3103;49.492;8.474;2022-10-23T16:07:54;3.90;;;2.30;;
6143;SDS011;3103;49.492;8.474;2022-10-23T16:10:21;2.50;;;1.80;;
6143;SDS011;3103;49.492;8.474;2022-10-23T16:12:48;8.23;;;3.03;;
6143;SDS011;3103;49.492;8.474;2022-10-23T16:15:15;6.50;;;4.40;;
6143;SDS011;3103;49.492;8.474;2022-10-23T16:17:42;9.33;;;5.60;;
6143;SDS011;3103;49.492;8.474;2022-10-23T16:20:09;6.30;;;4.18;;
6143;SDS011;3103;49.492;8.474;2022-10-23T16:22:36;5.07;;;3.10;;
6143;SDS011;3103;49.492;8.474;2022-10-23T16:25:10;4.57;;;3.03;;
6143;SDS011;3103;49.492;8.474;2022-10-23T16:27:37;5.80;;;3.97;;
6143;SDS011;3103;49.492;8.474;2022-10-23T16:30:06;3.83;;;2.37;;
6143;SDS011;3103;49.492;8.474;2022-10-23T16:32:34;11.30;;;6.33;;
6143;SDS011;3103;49.492;8.474;2022-10-23T16:35:02;17.27;;;11.40;;
6143;SDS011;3103;49.492;8.474;2022-10-23T16:37:38;33.07;;;19.73;;
6143;SDS011;3103;49.492;8.474;2022-10-23T16:40:11;25.37;;;14.43;;
6143;SDS011;3103;49.492;8.474;2022-10-23T16:42:57;30.67;;;17.30;;
6143;SDS011;3103;49.492;8.474;2022-10-23T16:45:42;22.40;;;13.67;;
6143;SDS011;3103;49.492;8.474;2022-10-23T16:48:09;16.40;;;10.57;;
6143;SDS011;3103;49.492;8.474;2022-10-23T16:50:37;15.10;;;7.97;;
6143;SDS011;3103;49.492;8.474;2022-10-23T16:53:10;5.83;;;3.90;;
6143;SDS011;3103;49.492;8.474;2022-10-23T16:55:38;10.30;;;6.87;;
6143;SDS011;3103;49.492;8.474;2022-10-23T16:58:05;3.93;;;3.20;;
6143;SDS011;3103;49.492;8.474;2022-10-23T17:00:32;5.53;;;4.20;;
6143;SDS011;3103;49.492;8.474;2022-10-23T17:03:01;6.23;;;4.13;;
6143;SDS011;3103;49.492;8.474;2022-10-23T17:05:33;3.77;;;2.70;;
6143;SDS011;3103;49.492;8.474;2022-10-23T17:08:00;5.57;;;2.70;;
6143;SDS011;3103;49.492;8.474;2022-10-23T17:10:29;7.47;;;3.93;;
6143;SDS011;3103;49.492;8.474;2022-10-23T17:12:55;4.17;;;3.07;;
6143;SDS011;3103;49.492;8.474;2022-10-23T17:15:22;12.07;;;8.30;;
6143;SDS011;3103;49.492;8.474;2022-10-23T17:17:49;12.73;;;8.30;;
6143;SDS011;3103;49.492;8.474;2022-10-23T17:20:16;29.60;;;18.10;;